Airport Information

METAR/TAF »

TAF 18.04.2019

TAF EGTC 181401Z 1815/1818 08008KT CAVOK TEMPO 1815/1818 8000

METAR 18.04.2019

EGTC 181720Z 09008KT CAVOK 19/06 Q1023

Airport Information

Runway Information

Runway TORA TODA ASDA LDA
21 1799m 1799m 1799m 1594m
03 1672m 1799m 1672m 1672m

Nav Aids

  • ILS
  • NDB
  • GNSS
  • DME

Opening Hours

Announcement

Cranfield’s new digital remote control tower is the first operational digital tower of its kind in the UK.

  • 24 hour Availability (Subject to prior notice and availability of ATC/RFFS. Fees will apply.)

    PPR required.
  • Monday to Friday - 08:00 to 18:30 local time. There will, on occasion, be restrictions to our opening hours and these restrictions will be notified by NOTAM. 

  • Saturday, Sunday, Public Holiday - 09:00 to 18:00 local time. Closed on weekends from 20 October 2018.

Please check again for updates or contact us on telephone: + 44 (0) 1234 758150 or email : airport@cranfield.ac.uk

Online payments

You can now pay online for Training (non-based)/Visiting/Leisure Flights under 2.7 tonnes. Visit the schedule of fees and pay online

General Information

  • Fire Category - RFF Category 2
  • Fuel - Jet A1 and Avgas.
  • Handling Services - full range available if required.
  • Winter operation capability.
  • Car parking - free and secure.
  • Frequencies : Departure ATIS 121.880 / Approach 122.855 / Tower 134.930
  • ICAO Code : EGTC